Time;durP1;ratioP1;P1;durP2;ratioP2;P2;SDS_P1;SDS_P2;PMS_P1;PMS_P2;Temp;Humidity;BMP_temperature;BMP_pressure;BME280_temperature;BME280_humidity;BME280_pressure;Samples;Min_cycle;Max_cycle;Signal;HPM_P1;HPM_P2
2022/06/04 00:02:01;;;;;;;6.93;4.60;;;12.00;99.90;;;;;;5051194;28;20049;-66
2022/06/04 00:04:26;;;;;;;7.60;4.30;;;12.00;99.90;;;;;;5052408;28;20025;-66
2022/06/04 00:06:52;;;;;;;8.52;4.75;;;12.00;99.90;;;;;;5051146;28;20040;-66
2022/06/04 00:09:26;;;;;;;7.88;4.30;;;12.00;99.90;;;;;;5052511;28;20079;-66
2022/06/04 00:17:21;;;;;;;7.78;4.50;;;11.90;99.90;;;;;;5050851;28;20059;-66
2022/06/04 00:19:47;;;;;;;8.10;4.75;;;11.90;99.90;;;;;;5050775;28;20037;-66
2022/06/04 00:22:13;;;;;;;9.45;4.70;;;11.80;99.90;;;;;;5052260;28;20036;-66
2022/06/04 00:24:41;;;;;;;10.88;5.28;;;11.80;99.90;;;;;;5050327;28;20071;-66
2022/06/04 00:27:17;;;;;;;9.43;4.90;;;11.80;99.90;;;;;;5050791;28;20059;-65
2022/06/04 00:29:42;;;;;;;9.77;4.45;;;11.80;99.90;;;;;;5050440;28;20049;-65
2022/06/04 00:32:08;;;;;;;9.60;4.65;;;11.70;99.90;;;;;;5050644;28;20059;-66
2022/06/04 00:34:34;;;;;;;11.65;4.63;;;11.70;99.90;;;;;;5050426;28;20048;-65
2022/06/04 00:37:00;;;;;;;9.30;4.22;;;11.70;99.90;;;;;;5051852;28;20044;-67
2022/06/04 00:39:25;;;;;;;9.05;3.92;;;11.70;99.90;;;;;;5050776;28;20075;-66
2022/06/04 00:42:04;;;;;;;7.57;4.20;;;11.70;99.90;;;;;;5050133;28;20091;-67
2022/06/04 00:44:32;;;;;;;9.95;4.43;;;11.70;99.90;;;;;;5050624;28;20589;-65
2022/06/04 00:47:13;;;;;;;8.85;4.38;;;11.60;99.90;;;;;;5052084;28;20472;-65
2022/06/04 00:49:38;;;;;;;8.13;4.40;;;11.60;99.90;;;;;;5050108;28;20091;-65
2022/06/04 00:52:09;;;;;;;11.93;5.20;;;11.60;99.90;;;;;;5050276;28;20076;-65
2022/06/04 00:54:35;;;;;;;12.38;4.68;;;11.60;99.90;;;;;;5047287;28;20281;-64
2022/06/04 00:57:06;;;;;;;10.25;4.40;;;11.50;99.90;;;;;;5049383;28;20128;-66
2022/06/04 00:59:54;;;;;;;10.52;4.93;;;11.50;99.90;;;;;;5049654;28;20149;-66
2022/06/04 01:02:40;;;;;;;11.07;4.40;;;11.60;99.90;;;;;;5044530;28;20122;-65
2022/06/04 01:05:24;;;;;;;7.75;4.82;;;11.50;99.90;;;;;;5050842;28;20033;-65
2022/06/04 01:08:14;;;;;;;9.63;4.75;;;11.40;99.90;;;;;;5050763;28;20114;-66
2022/06/04 01:11:16;;;;;;;10.77;4.95;;;11.40;99.90;;;;;;5050609;28;20079;-66
2022/06/04 01:14:22;;;;;;;10.23;4.53;;;11.40;99.90;;;;;;5050591;28;20155;-66
2022/06/04 01:16:58;;;;;;;8.70;4.63;;;11.40;99.90;;;;;;5049324;28;20052;-66
2022/06/04 01:19:49;;;;;;;10.40;4.57;;;11.40;99.90;;;;;;5049801;28;20563;-65
2022/06/04 01:22:17;;;;;;;9.15;4.90;;;11.40;99.90;;;;;;5050719;28;20546;-66
2022/06/04 01:24:53;;;;;;;10.73;4.53;;;11.30;99.90;;;;;;5048754;28;20033;-65
2022/06/04 01:27:27;;;;;;;9.10;4.72;;;11.30;99.90;;;;;;5050555;28;20060;-66
2022/06/04 01:30:10;;;;;;;11.32;5.00;;;11.40;99.90;;;;;;5050545;28;20053;-64
2022/06/04 01:32:43;;;;;;;10.88;4.78;;;11.30;99.90;;;;;;5049594;28;20056;-65
2022/06/04 01:35:15;;;;;;;;;;;11.30;99.90;;;;;;5049381;28;20037;-65
2022/06/04 01:38:11;;;;;;;9.05;4.57;;;11.30;99.90;;;;;;5049401;28;19928;-65
2022/06/04 01:43:28;;;;;;;10.85;5.00;;;11.30;99.90;;;;;;5050831;28;20045;-66
2022/06/04 01:45:59;;;;;;;8.57;4.53;;;11.30;99.90;;;;;;5050441;28;20538;-65
2022/06/04 01:48:27;;;;;;;11.80;5.15;;;11.30;99.90;;;;;;5049317;28;20079;-66
2022/06/04 01:51:01;;;;;;;9.52;4.57;;;11.20;99.90;;;;;;5050632;28;20080;-65
2022/06/04 01:53:32;;;;;;;11.40;4.82;;;11.20;99.90;;;;;;5050829;28;20076;-65
2022/06/04 01:56:02;;;;;;;10.97;5.93;;;11.20;99.90;;;;;;5050548;28;20049;-66
2022/06/04 01:58:36;;;;;;;10.98;4.95;;;11.20;99.90;;;;;;5049285;28;20312;-65
2022/06/04 02:01:13;;;;;;;10.95;5.50;;;11.20;99.90;;;;;;5050660;28;20053;-66
2022/06/04 02:03:49;;;;;;;11.60;5.13;;;11.10;99.90;;;;;;5050560;28;20040;-65
2022/06/04 02:06:19;;;;;;;7.40;5.13;;;11.20;99.90;;;;;;5049246;28;20084;-65
2022/06/04 02:08:53;;;;;;;10.85;4.88;;;11.10;99.90;;;;;;5050462;28;20439;-66
2022/06/04 02:11:22;;;;;;;10.02;4.95;;;11.10;99.90;;;;;;5049273;28;20060;-65
2022/06/04 02:13:52;;;;;;;8.52;4.80;;;11.10;99.90;;;;;;5050464;28;20051;-65
2022/06/04 02:16:43;;;;;;;8.80;5.10;;;11.10;99.90;;;;;;5049178;28;20060;-66
2022/06/04 02:19:09;;;;;;;12.00;5.25;;;11.10;99.90;;;;;;5050196;28;20048;-65
2022/06/04 02:21:35;;;;;;;14.63;5.15;;;11.00;99.90;;;;;;5049192;28;20041;-65
2022/06/04 02:24:03;;;;;;;9.50;5.13;;;11.10;99.90;;;;;;5050145;28;20395;-66
2022/06/04 02:26:29;;;;;;;10.98;4.80;;;11.00;99.90;;;;;;5050506;28;20029;-65
2022/06/04 02:28:58;;;;;;;7.30;4.90;;;11.10;99.90;;;;;;5048860;28;20041;-66
2022/06/04 02:31:34;;;;;;;9.02;4.95;;;11.00;99.90;;;;;;5048936;28;20059;-65
2022/06/04 02:34:13;;;;;;;9.93;5.15;;;11.00;99.90;;;;;;5048801;28;20068;-65
2022/06/04 02:36:59;;;;;;;9.70;4.78;;;11.00;99.90;;;;;;5050364;28;20404;-66
2022/06/04 02:39:40;;;;;;;10.38;5.28;;;11.00;99.90;;;;;;5048814;28;20037;-65
2022/06/04 02:42:36;;;;;;;11.95;5.43;;;11.00;99.90;;;;;;5048735;28;20041;-65
2022/06/04 02:45:06;;;;;;;10.07;5.55;;;11.00;99.90;;;;;;5009718;28;20050;-65
2022/06/04 02:47:49;;;;;;;10.90;5.32;;;10.90;99.90;;;;;;5027800;28;20057;-66
2022/06/04 02:50:39;;;;;;;11.45;6.05;;;10.90;99.90;;;;;;5014424;28;20092;-65
2022/06/04 02:53:06;;;;;;;12.18;5.70;;;10.90;99.90;;;;;;5030967;28;20411;-65
2022/06/04 02:55:38;;;;;;;9.77;5.53;;;10.90;99.90;;;;;;5014423;28;20043;-65
2022/06/04 02:58:10;;;;;;;12.65;5.75;;;10.90;99.90;;;;;;5014381;28;20049;-65
2022/06/04 03:00:36;;;;;;;13.63;6.07;;;10.90;99.90;;;;;;5031272;28;20045;-65
2022/06/04 03:03:02;;;;;;;11.07;6.25;;;10.80;99.90;;;;;;5014026;28;20042;-66
2022/06/04 03:05:28;;;;;;;11.90;5.85;;;10.80;99.90;;;;;;5014478;28;20037;-65
2022/06/04 03:08:02;;;;;;;10.30;5.75;;;10.80;99.90;;;;;;5030947;28;20041;-66
2022/06/04 03:10:31;;;;;;;11.48;6.88;;;10.80;99.90;;;;;;5014308;28;20053;-65
2022/06/04 03:12:57;;;;;;;11.00;6.68;;;10.80;99.90;;;;;;5014601;28;20511;-66
2022/06/04 03:15:24;;;;;;;12.80;7.15;;;10.80;99.90;;;;;;5014118;28;20065;-65
2022/06/04 03:17:50;;;;;;;11.15;6.78;;;10.70;99.90;;;;;;5030398;28;20049;-66
2022/06/04 03:20:22;;;;;;;12.07;6.82;;;10.70;99.90;;;;;;5030744;28;20037;-65
2022/06/04 03:22:48;;;;;;;14.10;7.80;;;10.70;99.90;;;;;;5049241;28;20045;-65
2022/06/04 03:25:15;;;;;;;13.93;7.72;;;10.70;99.90;;;;;;5035034;28;20047;-65
2022/06/04 03:27:40;;;;;;;13.52;7.22;;;10.60;99.90;;;;;;5051922;28;20041;-65
2022/06/04 03:30:07;;;;;;;11.05;7.32;;;10.60;99.90;;;;;;5053261;28;20387;-65
2022/06/04 03:32:33;;;;;;;13.00;7.03;;;10.60;99.90;;;;;;5052859;28;20037;-65
2022/06/04 03:34:59;;;;;;;12.20;6.75;;;10.60;99.90;;;;;;5053098;28;20041;-65
2022/06/04 03:37:25;;;;;;;11.57;7.25;;;10.60;99.90;;;;;;5052716;28;20125;-65
2022/06/04 03:39:51;;;;;;;13.52;7.05;;;10.60;99.90;;;;;;5053082;28;20033;-65
2022/06/04 03:42:16;;;;;;;10.90;7.07;;;10.60;99.90;;;;;;5051439;28;20039;-64
2022/06/04 03:44:46;;;;;;;10.95;6.72;;;10.60;99.90;;;;;;5052818;28;20391;-65
2022/06/04 03:47:12;;;;;;;14.38;7.05;;;10.60;99.90;;;;;;5034543;28;20048;-66
2022/06/04 03:49:38;;;;;;;14.95;7.18;;;10.70;99.90;;;;;;5053125;28;20103;-66
2022/06/04 03:52:04;;;;;;;15.70;6.95;;;10.70;99.90;;;;;;5052954;28;20499;-65
2022/06/04 03:59:59;;;;;;;12.05;6.65;;;10.70;99.90;;;;;;5052272;28;20076;-67
2022/06/04 04:02:25;;;;;;;10.02;6.22;;;10.70;99.90;;;;;;5052258;28;20072;-66
2022/06/04 04:04:51;;;;;;;13.35;6.85;;;10.70;99.90;;;;;;5051326;28;20365;-65
2022/06/04 04:07:16;;;;;;;9.93;6.35;;;10.80;99.90;;;;;;5051066;28;20051;-65
2022/06/04 04:09:42;;;;;;;13.13;6.90;;;10.80;99.90;;;;;;5052386;28;20032;-65
2022/06/04 04:12:08;;;;;;;11.77;6.30;;;10.80;99.90;;;;;;5051011;28;20039;-65
2022/06/04 04:14:34;;;;;;;10.50;6.50;;;10.90;99.90;;;;;;5052215;28;20412;-65
2022/06/04 04:16:59;;;;;;;13.35;6.72;;;11.00;99.90;;;;;;5052279;28;20045;-65
2022/06/04 04:19:28;;;;;;;9.68;6.07;;;11.00;99.90;;;;;;5052063;28;20037;-64
2022/06/04 04:21:54;;;;;;;8.65;5.72;;;11.00;99.90;;;;;;5052254;28;20040;-66
2022/06/04 04:24:20;;;;;;;9.65;5.82;;;11.10;99.90;;;;;;5052003;28;20419;-65
2022/06/04 04:26:46;;;;;;;12.23;6.03;;;11.10;99.90;;;;;;5051897;28;20033;-65
2022/06/04 04:29:12;;;;;;;10.13;5.80;;;11.10;99.90;;;;;;5052394;28;20040;-65
2022/06/04 04:31:38;;;;;;;11.30;5.50;;;11.20;99.90;;;;;;5050392;28;20127;-65
2022/06/04 04:34:04;;;;;;;9.25;5.40;;;11.20;99.90;;;;;;5050685;28;20036;-65
2022/06/04 04:36:30;;;;;;;10.85;5.07;;;11.20;99.90;;;;;;5048996;28;20056;-66
2022/06/04 04:38:59;;;;;;;7.68;5.13;;;11.40;99.90;;;;;;5033331;28;20403;-65
2022/06/04 04:41:26;;;;;;;12.27;5.68;;;11.40;99.90;;;;;;5051156;28;20063;-65
2022/06/04 04:43:52;;;;;;;11.05;5.30;;;11.40;99.90;;;;;;5051287;28;20119;-65
2022/06/04 04:46:18;;;;;;;11.57;5.25;;;11.50;99.90;;;;;;5050261;28;20120;-64
2022/06/04 04:48:46;;;;;;;10.93;4.88;;;11.60;99.90;;;;;;5051316;28;20167;-65
2022/06/04 04:51:15;;;;;;;8.82;4.80;;;11.70;99.90;;;;;;5050038;28;20045;-65
2022/06/04 04:53:43;;;;;;;9.88;4.45;;;11.70;99.90;;;;;;5049602;28;20033;-65
2022/06/04 04:56:09;;;;;;;8.77;4.57;;;11.80;99.90;;;;;;5049614;28;20095;-65
2022/06/04 04:58:35;;;;;;;10.23;4.70;;;11.90;99.90;;;;;;5050725;28;20405;-66
2022/06/04 05:01:01;;;;;;;8.10;4.45;;;12.00;99.90;;;;;;5051169;28;20373;-65
2022/06/04 05:03:26;;;;;;;10.32;4.93;;;12.10;99.90;;;;;;5050010;28;20190;-65
2022/06/04 05:06:00;;;;;;;8.82;4.22;;;12.10;99.90;;;;;;5050998;28;20037;-65
2022/06/04 05:08:25;;;;;;;9.95;4.45;;;12.20;99.90;;;;;;5050693;28;20037;-65
2022/06/04 05:10:51;;;;;;;8.82;4.40;;;12.30;99.90;;;;;;5050296;28;21622;-66
2022/06/04 05:13:17;;;;;;;13.25;5.07;;;12.40;99.90;;;;;;5049926;28;20091;-65
2022/06/04 05:15:43;;;;;;;6.68;4.40;;;12.50;99.90;;;;;;5051088;28;20059;-66
2022/06/04 05:18:09;;;;;;;7.72;4.32;;;12.60;99.90;;;;;;5050960;28;20107;-65
2022/06/04 05:20:34;;;;;;;7.25;3.97;;;12.70;99.90;;;;;;5050988;28;20057;-65
2022/06/04 05:23:00;;;;;;;6.05;4.30;;;12.80;99.90;;;;;;5050845;28;20041;-64
2022/06/04 05:25:26;;;;;;;6.40;3.60;;;12.90;99.90;;;;;;5051199;28;20075;-64
2022/06/04 05:27:51;;;;;;;8.88;3.50;;;12.90;99.90;;;;;;5050903;28;20037;-66
2022/06/04 05:30:17;;;;;;;7.43;3.72;;;13.00;99.90;;;;;;5049812;28;20068;-66
2022/06/04 05:32:43;;;;;;;6.97;3.53;;;13.10;99.90;;;;;;5050872;28;20041;-65
2022/06/04 05:35:09;;;;;;;5.97;3.65;;;13.00;99.90;;;;;;5050880;28;20052;-65
2022/06/04 05:37:35;;;;;;;7.95;4.10;;;13.00;99.90;;;;;;5049570;28;20045;-66
2022/06/04 05:40:00;;;;;;;7.22;4.25;;;12.90;99.90;;;;;;5050604;28;20036;-65
2022/06/04 05:42:26;;;;;;;7.22;3.78;;;12.80;99.90;;;;;;5049525;28;20040;-66
2022/06/04 05:44:52;;;;;;;6.93;3.72;;;12.70;99.90;;;;;;5049165;28;20044;-65
2022/06/04 05:47:18;;;;;;;6.80;3.88;;;12.80;99.90;;;;;;5050910;28;20048;-65
2022/06/04 05:49:44;;;;;;;6.85;3.90;;;12.90;99.90;;;;;;5049333;28;20036;-66
2022/06/04 05:52:09;;;;;;;10.45;3.42;;;13.00;99.90;;;;;;5050391;28;20033;-66
2022/06/04 05:54:35;;;;;;;7.18;3.40;;;13.10;99.90;;;;;;5049588;28;20049;-66
2022/06/04 05:57:00;;;;;;;5.45;3.13;;;13.30;99.90;;;;;;5050326;28;20056;-66
2022/06/04 05:59:26;;;;;;;5.75;3.42;;;13.40;99.90;;;;;;5050510;28;20377;-66
2022/06/04 06:01:52;;;;;;;5.65;3.67;;;13.50;99.90;;;;;;5049035;28;20056;-66
2022/06/04 06:04:20;;;;;;;6.80;3.53;;;13.50;99.90;;;;;;5050685;28;20116;-66
2022/06/04 06:06:48;;;;;;;6.30;3.42;;;13.50;99.90;;;;;;5050374;28;20115;-66
2022/06/04 06:09:15;;;;;;;5.45;3.45;;;13.50;99.90;;;;;;5050592;28;20401;-66
2022/06/04 06:11:41;;;;;;;5.93;3.50;;;13.50;99.90;;;;;;5050598;28;20462;-66
2022/06/04 06:14:08;;;;;;;4.28;3.25;;;13.60;99.90;;;;;;5050178;28;20043;-65
2022/06/04 06:16:35;;;;;;;8.05;3.72;;;13.80;99.90;;;;;;5049454;28;20147;-65
2022/06/04 06:19:00;;;;;;;4.40;3.28;;;13.90;99.90;;;;;;5050181;28;20456;-66
2022/06/04 06:21:29;;;;;;;5.80;3.20;;;14.00;99.90;;;;;;5050871;28;20545;-66
2022/06/04 06:23:56;;;;;;;4.57;3.22;;;14.10;99.90;;;;;;5054363;28;20041;-66
2022/06/04 06:26:27;;;;;;;8.10;3.33;;;14.30;99.90;;;;;;5054508;28;20040;-65
2022/06/04 06:28:54;;;;;;;6.78;3.17;;;14.40;99.90;;;;;;5047787;28;20562;-66
2022/06/04 06:31:22;;;;;;;4.30;3.00;;;14.50;99.90;;;;;;5053996;28;20062;-67
2022/06/04 06:33:48;;;;;;;4.53;3.30;;;14.60;99.90;;;;;;5053922;28;20045;-65
2022/06/04 06:36:16;;;;;;;6.68;3.00;;;14.80;99.90;;;;;;5052626;28;20119;-65
2022/06/04 06:38:43;;;;;;;6.22;3.40;;;14.80;99.90;;;;;;5053973;28;20102;-66
2022/06/04 06:41:09;;;;;;;5.18;3.35;;;14.90;99.90;;;;;;5052262;28;20388;-65
2022/06/04 06:43:38;;;;;;;5.28;3.05;;;15.00;99.90;;;;;;5053816;28;20093;-66
2022/06/04 06:46:06;;;;;;;5.65;2.90;;;15.10;99.90;;;;;;5053575;28;20041;-66
2022/06/04 06:48:33;;;;;;;4.47;2.95;;;15.20;99.90;;;;;;5053571;28;20051;-66
2022/06/04 06:51:08;;;;;;;5.13;3.05;;;15.30;99.90;;;;;;5036181;28;20443;-64
2022/06/04 06:53:34;;;;;;;9.57;3.38;;;15.40;99.90;;;;;;5053659;28;20076;-66
2022/06/04 06:56:09;;;;;;;7.50;2.88;;;15.50;99.90;;;;;;5052311;28;20537;-66
2022/06/04 06:58:34;;;;;;;6.40;2.97;;;15.40;99.90;;;;;;5051812;28;20057;-66
2022/06/04 07:01:00;;;;;;;5.38;3.50;;;15.50;99.90;;;;;;5052149;28;20436;-65
2022/06/04 07:03:26;;;;;;;6.07;3.08;;;15.70;99.90;;;;;;5052096;28;20056;-65
2022/06/04 07:05:55;;;;;;;5.72;3.33;;;15.70;99.90;;;;;;5052799;28;20047;-65
2022/06/04 07:08:22;;;;;;;5.07;3.15;;;15.90;99.90;;;;;;5053549;28;20068;-66
2022/06/04 07:10:48;;;;;;;4.95;3.17;;;16.00;99.90;;;;;;5053586;28;20029;-66
2022/06/04 07:13:14;;;;;;;7.63;3.00;;;16.10;99.90;;;;;;5053345;28;20043;-65
2022/06/04 07:15:40;;;;;;;5.85;3.10;;;16.20;99.90;;;;;;5053435;28;20045;-65
2022/06/04 07:18:06;;;;;;;5.70;3.35;;;16.20;99.90;;;;;;5052116;28;20392;-66
2022/06/04 07:20:31;;;;;;;5.47;3.10;;;16.30;99.90;;;;;;5053236;28;20033;-65
2022/06/04 07:22:57;;;;;;;7.03;3.28;;;16.50;99.90;;;;;;5053461;28;20124;-65
2022/06/04 07:25:23;;;;;;;5.47;3.00;;;16.50;99.90;;;;;;5052129;28;20041;-66
2022/06/04 07:27:48;;;;;;;4.13;2.90;;;16.70;99.90;;;;;;5053393;28;20048;-66
2022/06/04 07:30:14;;;;;;;5.22;3.47;;;16.80;99.90;;;;;;5052954;28;20543;-66
2022/06/04 07:32:41;;;;;;;8.23;3.20;;;17.00;99.90;;;;;;5053022;28;20113;-66
2022/06/04 07:35:07;;;;;;;4.97;2.83;;;17.10;99.90;;;;;;5051219;28;20471;-65
2022/06/04 07:37:32;;;;;;;3.92;2.80;;;17.20;99.90;;;;;;5052891;28;20079;-65
2022/06/04 07:39:58;;;;;;;3.65;2.78;;;17.30;99.90;;;;;;5051699;28;20064;-66
2022/06/04 07:42:25;;;;;;;4.93;2.97;;;17.50;99.90;;;;;;5052899;28;20041;-66
2022/06/04 07:44:51;;;;;;;4.13;2.75;;;17.60;99.90;;;;;;5051733;28;20118;-66
2022/06/04 07:47:17;;;;;;;5.05;2.80;;;17.80;99.90;;;;;;5051501;28;20138;-66
2022/06/04 07:49:42;;;;;;;4.22;2.88;;;17.90;99.90;;;;;;5051746;28;20045;-66
2022/06/04 07:52:08;;;;;;;7.68;4.35;;;17.90;99.90;;;;;;5052883;28;20040;-66
2022/06/04 07:54:34;;;;;;;5.20;3.13;;;18.00;99.90;;;;;;5052491;28;20487;-65
2022/06/04 07:57:01;;;;;;;5.97;3.40;;;18.10;99.90;;;;;;5051376;28;20053;-66
2022/06/04 07:59:27;;;;;;;5.43;3.38;;;18.20;99.90;;;;;;5050893;28;20494;-66
2022/06/04 08:01:53;;;;;;;5.10;3.35;;;18.30;99.90;;;;;;5051441;28;20047;-66
2022/06/04 08:04:18;;;;;;;6.68;3.15;;;18.10;99.90;;;;;;5052813;28;20029;-65
2022/06/04 08:06:44;;;;;;;5.78;2.92;;;18.20;99.90;;;;;;5051145;28;20040;-65
2022/06/04 08:09:11;;;;;;;4.63;2.97;;;18.30;99.90;;;;;;5051203;28;20044;-66
2022/06/04 08:11:37;;;;;;;6.55;3.05;;;18.10;99.90;;;;;;5052298;28;20037;-66
2022/06/04 08:14:05;;;;;;;4.88;3.00;;;18.10;99.90;;;;;;5052309;28;20120;-66
2022/06/04 08:16:32;;;;;;;5.53;3.20;;;17.90;99.90;;;;;;5051126;28;20049;-66
2022/06/04 08:18:58;;;;;;;4.82;3.05;;;17.90;99.90;;;;;;5050094;28;20075;-66
2022/06/04 08:21:24;;;;;;;3.92;3.03;;;17.90;99.90;;;;;;5050779;28;20040;-65
2022/06/04 08:23:50;;;;;;;4.20;2.95;;;18.00;99.90;;;;;;5050477;28;20040;-66
2022/06/04 08:26:16;;;;;;;5.60;3.10;;;18.10;99.90;;;;;;5051420;28;20175;-66
2022/06/04 08:28:42;;;;;;;5.10;3.13;;;18.20;99.90;;;;;;5051660;28;20037;-66
2022/06/04 08:31:15;;;;;;;5.00;3.13;;;18.20;99.90;;;;;;5051814;28;20033;-66
2022/06/04 08:33:41;;;;;;;5.63;3.53;;;18.10;99.90;;;;;;5051404;28;20395;-66
2022/06/04 08:36:08;;;;;;;5.63;3.47;;;18.10;99.90;;;;;;5051929;28;20068;-66
2022/06/04 08:38:34;;;;;;;6.32;3.50;;;18.00;99.90;;;;;;5051279;28;20037;-66
2022/06/04 08:41:01;;;;;;;4.85;2.88;;;18.10;99.90;;;;;;5050098;28;20037;-66
2022/06/04 08:43:40;;;;;;;5.40;3.20;;;18.20;99.90;;;;;;5050436;28;20097;-66
2022/06/04 08:46:19;;;;;;;5.50;3.40;;;18.10;99.90;;;;;;5051454;28;20068;-66
2022/06/04 08:48:45;;;;;;;4.85;3.13;;;18.10;99.90;;;;;;5050040;28;20499;-66
2022/06/04 08:51:20;;;;;;;4.75;2.92;;;18.10;99.90;;;;;;5051546;28;20076;-67
2022/06/04 08:53:50;;;;;;;4.30;3.03;;;18.10;99.90;;;;;;5033364;28;20051;-66
2022/06/04 08:59:19;;;;;;;4.45;3.03;;;18.10;99.90;;;;;;5051435;28;20442;-66
2022/06/04 09:01:52;;;;;;;5.68;3.13;;;18.00;99.90;;;;;;5051183;28;20052;-66
2022/06/04 09:04:42;;;;;;;3.70;2.90;;;18.10;99.90;;;;;;5051521;28;20044;-66
2022/06/04 09:07:35;;;;;;;4.35;3.03;;;18.40;99.90;;;;;;5051459;28;20479;-65
2022/06/04 09:10:20;;;;;;;5.97;2.92;;;18.80;99.90;;;;;;5051054;28;20040;-66
2022/06/04 09:12:58;;;;;;;5.18;3.35;;;19.00;99.90;;;;;;5051259;28;20499;-65
2022/06/04 09:15:29;;;;;;;4.15;3.75;;;19.30;99.90;;;;;;5050021;28;20427;-66
2022/06/04 09:17:57;;;;;;;6.88;3.47;;;19.70;99.90;;;;;;5049851;28;20053;-67
2022/06/04 09:20:45;;;;;;;5.22;3.35;;;20.00;99.90;;;;;;5050061;28;20033;-66
2022/06/04 09:23:35;;;;;;;4.90;2.65;;;20.30;99.90;;;;;;5051207;28;20049;-65
2022/06/04 09:26:40;;;;;;;7.18;3.38;;;20.60;99.90;;;;;;5050986;28;20037;-66
2022/06/04 09:29:33;;;;;;;4.28;3.20;;;20.90;99.90;;;;;;5031682;28;20136;-66
2022/06/04 09:32:44;;;;;;;4.68;3.10;;;21.00;99.90;;;;;;5048684;28;20049;-66
2022/06/04 09:35:31;;;;;;;5.10;3.03;;;21.10;99.90;;;;;;5048554;28;20048;-65
2022/06/04 09:37:57;;;;;;;3.60;2.90;;;21.30;99.90;;;;;;5031284;28;20510;-66
2022/06/04 09:40:29;;;;;;;5.68;2.72;;;21.60;99.90;;;;;;5031786;28;20179;-67
2022/06/04 09:43:16;;;;;;;4.43;3.00;;;21.80;99.90;;;;;;5031525;28;20289;-67
2022/06/04 09:45:51;;;;;;;3.70;2.88;;;21.70;99.90;;;;;;5031742;28;20078;-66
2022/06/04 09:48:35;;;;;;;5.43;3.05;;;21.50;99.90;;;;;;5031890;28;20045;-65
2022/06/04 09:51:03;;;;;;;4.15;2.65;;;21.40;99.90;;;;;;5048475;28;20055;-66
2022/06/04 09:53:44;;;;;;;3.88;2.65;;;21.40;99.90;;;;;;5048545;28;20084;-66
2022/06/04 09:56:28;;;;;;;3.45;3.10;;;21.10;99.90;;;;;;5047517;28;20033;-67
2022/06/04 09:58:54;;;;;;;3.47;2.85;;;21.00;99.90;;;;;;5014692;28;20064;-66
2022/06/04 10:01:23;;;;;;;5.55;3.10;;;21.20;99.90;;;;;;5031168;28;20037;-66
2022/06/04 10:04:12;;;;;;;3.92;3.20;;;21.60;99.90;;;;;;5048096;28;20486;-66
2022/06/04 10:06:38;;;;;;;4.13;3.08;;;21.90;99.90;;;;;;5050047;28;20063;-67
2022/06/04 10:12:07;;;;;;;4.60;3.38;;;22.20;99.90;;;;;;5064632;28;20044;-66
2022/06/04 10:14:33;;;;;;;;;;;22.10;99.90;;;;;;5049576;28;20579;-67
2022/06/04 10:17:01;;;;;;;5.15;3.83;;;21.90;99.90;;;;;;5048427;28;19999;-67
2022/06/04 10:19:27;;;;;;;4.75;3.25;;;21.70;99.90;;;;;;5050275;28;20484;-65
2022/06/04 10:22:22;;;;;;;3.22;2.70;;;21.60;99.90;;;;;;5049071;28;20029;-66
2022/06/04 10:24:52;;;;;;;5.20;2.80;;;21.60;99.90;;;;;;5027751;28;20041;-66
2022/06/04 10:27:53;;;;;;;4.60;3.38;;;21.80;99.90;;;;;;5010676;28;20044;-66
2022/06/04 10:30:24;;;;;;;4.30;3.30;;;22.00;99.90;;;;;;5027508;28;20052;-66
2022/06/04 10:33:05;;;;;;;4.18;3.58;;;22.10;99.90;;;;;;5027838;28;20045;-65
2022/06/04 10:35:52;;;;;;;3.58;3.20;;;22.20;99.90;;;;;;5027895;28;20456;-66
2022/06/04 10:38:30;;;;;;;5.05;3.75;;;22.50;99.90;;;;;;5027470;28;20077;-66
2022/06/04 10:40:56;;;;;;;3.70;3.08;;;22.70;99.90;;;;;;5027218;28;20044;-66
2022/06/04 10:43:35;;;;;;;5.50;3.53;;;22.60;99.90;;;;;;5027504;28;20034;-66
2022/06/04 10:46:14;;;;;;;4.57;3.25;;;22.60;99.60;;;;;;5027710;28;20038;-66
2022/06/04 10:49:01;;;;;;;4.90;3.22;;;22.60;99.80;;;;;;5027955;28;20111;-66
2022/06/04 10:52:03;;;;;;;6.85;3.47;;;22.60;99.90;;;;;;5010222;28;20049;-67
2022/06/04 10:54:40;;;;;;;5.15;3.63;;;22.50;99.20;;;;;;5027620;28;20133;-67
2022/06/04 10:57:31;;;;;;;4.45;3.67;;;22.60;99.90;;;;;;5008215;28;20054;-67
2022/06/04 11:00:08;;;;;;;4.75;3.20;;;22.40;99.80;;;;;;5022577;28;20045;-67
2022/06/04 11:02:56;;;;;;;4.32;3.17;;;22.50;99.90;;;;;;5048981;28;20373;-66
2022/06/04 11:05:30;;;;;;;4.10;2.88;;;22.70;99.10;;;;;;5049873;28;20025;-67
2022/06/04 11:08:22;;;;;;;3.78;3.10;;;22.80;99.70;;;;;;5048597;28;20131;-67
2022/06/04 11:11:08;;;;;;;3.83;2.85;;;22.90;99.10;;;;;;5052339;28;20045;-67
2022/06/04 11:13:34;;;;;;;3.83;2.92;;;23.00;99.60;;;;;;5053702;28;20886;-66
2022/06/04 11:16:10;;;;;;;5.63;2.58;;;23.00;99.20;;;;;;5053579;28;20075;-66
2022/06/04 11:19:15;;;;;;;5.47;2.50;;;22.90;99.20;;;;;;5052016;28;20076;-67
2022/06/04 11:22:04;;;;;;;5.35;3.00;;;22.80;98.60;;;;;;5052097;28;20041;-65
2022/06/04 11:24:39;;;;;;;6.38;3.08;;;22.60;98.00;;;;;;5052137;28;20334;-66
2022/06/04 11:27:31;;;;;;;5.80;2.78;;;22.40;98.50;;;;;;5053621;28;20185;-67
2022/06/04 11:29:57;;;;;;;4.50;2.47;;;22.40;98.30;;;;;;5051963;28;20128;-66
2022/06/04 11:32:52;;;;;;;5.50;2.75;;;22.30;98.60;;;;;;5051747;28;20040;-67
2022/06/04 11:35:23;;;;;;;3.83;2.20;;;22.30;98.30;;;;;;5051880;28;20039;-66
2022/06/04 11:38:17;;;;;;;3.15;2.70;;;22.30;98.00;;;;;;5053140;28;20478;-66
2022/06/04 11:41:06;;;;;;;3.65;2.30;;;22.20;98.40;;;;;;5051550;28;20049;-66
2022/06/04 11:43:51;;;;;;;3.42;2.42;;;22.30;98.20;;;;;;5052851;28;20041;-67
2022/06/04 11:46:32;;;;;;;3.13;2.33;;;22.30;98.00;;;;;;5052966;28;20036;-67
2022/06/04 11:49:20;;;;;;;3.33;2.35;;;22.30;98.50;;;;;;5051619;28;20044;-67
2022/06/04 11:52:02;;;;;;;3.67;2.28;;;22.30;98.00;;;;;;5052585;28;20124;-66
2022/06/04 11:54:40;;;;;;;4.88;2.60;;;22.20;97.90;;;;;;5052608;28;20037;-66
2022/06/04 11:57:15;;;;;;;6.18;2.72;;;22.20;98.00;;;;;;5052982;28;20053;-65
2022/06/04 12:00:13;;;;;;;4.03;2.47;;;22.10;98.40;;;;;;5051682;28;20510;-66
2022/06/04 12:02:57;;;;;;;4.00;2.38;;;22.10;98.30;;;;;;5048399;28;20048;-66
2022/06/04 12:05:30;;;;;;;4.25;2.50;;;22.20;98.70;;;;;;5052164;28;20033;-66
2022/06/04 12:07:58;;;;;;;4.55;2.58;;;22.00;98.20;;;;;;5052154;28;20048;-67
2022/06/04 12:10:29;;;;;;;4.28;2.08;;;22.00;98.60;;;;;;5050798;28;20041;-67
2022/06/04 12:13:06;;;;;;;3.17;2.60;;;21.90;98.50;;;;;;5051847;28;20120;-66
2022/06/04 12:15:38;;;;;;;3.38;2.50;;;22.00;97.70;;;;;;5051727;28;20037;-66
2022/06/04 12:18:24;;;;;;;3.75;2.45;;;22.00;97.50;;;;;;5051605;28;20043;-66
2022/06/04 12:24:15;;;;;;;3.05;2.10;;;22.10;98.00;;;;;;5051818;28;20507;-66
2022/06/04 12:26:48;;;;;;;5.40;2.40;;;22.20;98.30;;;;;;5038016;28;20480;-66
2022/06/04 12:29:35;;;;;;;5.15;2.33;;;22.20;97.80;;;;;;5051665;28;20071;-66
2022/06/04 12:32:06;;;;;;;4.90;2.10;;;22.10;97.50;;;;;;5051341;28;20113;-66
2022/06/04 12:34:39;;;;;;;4.50;2.60;;;22.10;97.90;;;;;;5051705;28;20040;-65
2022/06/04 12:37:20;;;;;;;2.60;1.90;;;22.00;97.20;;;;;;5050653;28;20049;-66
2022/06/04 12:39:46;;;;;;;4.60;2.10;;;22.00;97.40;;;;;;5051940;28;20041;-66
2022/06/04 12:42:18;;;;;;;5.13;2.55;;;22.00;97.50;;;;;;5051784;28;20503;-66
2022/06/04 12:44:56;;;;;;;2.97;2.20;;;21.90;97.60;;;;;;5051790;28;20563;-66
2022/06/04 12:47:26;;;;;;;4.10;2.58;;;22.00;97.50;;;;;;5051672;28;20045;-67
2022/06/04 12:49:57;;;;;;;2.78;2.10;;;21.80;97.50;;;;;;5050525;28;20044;-66
2022/06/04 12:52:36;;;;;;;3.63;2.30;;;21.90;97.70;;;;;;5051734;28;20945;-66
2022/06/04 12:55:25;;;;;;;2.42;2.13;;;21.90;98.30;;;;;;5050374;28;20507;-66
2022/06/04 12:57:54;;;;;;;2.65;1.80;;;22.00;97.80;;;;;;5049821;28;20095;-67
2022/06/04 13:00:27;;;;;;;3.03;2.03;;;22.00;98.00;;;;;;5051488;28;20049;-67
2022/06/04 13:03:08;;;;;;;3.13;2.15;;;22.10;98.10;;;;;;5051445;28;20049;-66
2022/06/04 13:05:37;;;;;;;2.85;1.80;;;22.20;97.20;;;;;;5051452;28;20040;-67
2022/06/04 13:08:20;;;;;;;4.18;1.98;;;22.10;97.30;;;;;;5051135;28;20045;-66
2022/06/04 13:11:05;;;;;;;3.70;1.90;;;22.10;97.00;;;;;;5050114;28;20133;-67
2022/06/04 13:13:55;;;;;;;3.15;2.25;;;22.10;96.80;;;;;;5050146;28;20124;-67
2022/06/04 13:16:27;;;;;;;3.33;2.15;;;22.00;96.40;;;;;;5049995;28;20380;-67
2022/06/04 13:19:08;;;;;;;2.72;2.00;;;21.90;96.80;;;;;;5049736;28;20045;-66
2022/06/04 13:21:40;;;;;;;2.25;2.00;;;21.80;97.30;;;;;;5050035;28;20041;-66
2022/06/04 13:24:13;;;;;;;4.35;2.00;;;21.80;97.60;;;;;;5049760;28;21354;-66
2022/06/04 13:26:51;;;;;;;3.42;2.00;;;21.70;97.50;;;;;;5050931;28;20597;-67
2022/06/04 13:29:26;;;;;;;3.42;2.10;;;21.70;97.30;;;;;;5050918;28;20094;-67
2022/06/04 13:32:22;;;;;;;4.45;2.15;;;21.80;97.50;;;;;;5049054;28;20184;-67
2022/06/04 13:34:49;;;;;;;3.30;2.08;;;21.90;97.30;;;;;;5049101;28;20533;-66
2022/06/04 13:37:21;;;;;;;2.78;2.10;;;21.80;96.10;;;;;;5050715;28;20056;-66